Time,TemperatureF,DewpointF,PressureIn,WindDirection,WindDirectionDegrees,WindSpeedMPH,WindSpeedGustMPH,Humidity,HourlyPrecipIn,Conditions,Clouds,dailyrainin,SoftwareType,DateUTC
2013-04-13 00:01:00,74.1,70.7,29.53,SE,135,0.0,1.1,89,0.00,,,0.00,VWS V14.01,2013-04-12 14:01:00,
2013-04-13 00:06:00,73.9,70.5,29.53,NNE,22,0.0,0.0,89,0.04,,,0.04,VWS V14.01,2013-04-12 14:06:00,
2013-04-13 00:11:00,73.9,70.5,29.53,East,90,1.6,1.6,89,0.04,,,0.04,VWS V14.01,2013-04-12 14:11:00,
2013-04-13 00:16:00,73.8,70.3,29.53,SE,135,1.6,1.6,89,0.04,,,0.04,VWS V14.01,2013-04-12 14:16:00,
2013-04-13 00:21:00,73.8,70.3,29.53,SSE,158,2.2,2.2,89,0.04,,,0.04,VWS V14.01,2013-04-12 14:21:00,
2013-04-13 00:27:00,73.8,70.3,29.53,South,180,0.0,0.0,89,0.04,,,0.04,VWS V14.01,2013-04-12 14:27:00,
2013-04-13 00:32:00,73.9,70.8,29.53,SSW,202,2.7,2.7,90,0.04,,,0.04,VWS V14.01,2013-04-12 14:32:00,
2013-04-13 00:37:00,73.8,70.7,29.53,South,180,3.6,3.6,90,0.04,,,0.04,VWS V14.01,2013-04-12 14:37:00,
2013-04-13 00:42:00,73.6,70.5,29.53,SSW,202,3.4,3.4,90,0.08,,,0.08,VWS V14.01,2013-04-12 14:42:00,
2013-04-13 00:47:00,73.4,70.3,29.53,SSW,202,1.6,1.6,90,0.08,,,0.08,VWS V14.01,2013-04-12 14:47:00,
2013-04-13 00:52:00,73.4,70.3,29.53,SSE,158,3.4,3.4,90,0.08,,,0.08,VWS V14.01,2013-04-12 14:52:00,
2013-04-13 00:57:00,73.4,70.3,29.53,SSE,158,4.3,4.3,90,0.08,,,0.08,VWS V14.01,2013-04-12 14:57:00,
2013-04-13 01:02:00,73.4,70.3,29.53,South,180,2.7,2.7,90,0.04,,,0.08,VWS V14.01,2013-04-12 15:02:00,
2013-04-13 01:08:00,73.2,70.1,29.53,SSE,158,1.3,4.3,90,0.04,,,0.08,VWS V14.01,2013-04-12 15:08:00,
2013-04-13 01:13:00,73.4,70.3,29.50,SSE,158,2.7,3.4,90,0.04,,,0.08,VWS V14.01,2013-04-12 15:13:00,
2013-04-13 01:18:00,73.4,70.3,29.50,SSE,158,2.0,2.0,90,0.04,,,0.08,VWS V14.01,2013-04-12 15:18:00,
2013-04-13 01:23:00,73.6,70.5,29.50,SE,135,1.6,1.6,90,0.04,,,0.08,VWS V14.01,2013-04-12 15:23:00,
2013-04-13 01:28:00,73.4,70.3,29.50,East,90,0.0,2.0,90,0.04,,,0.08,VWS V14.01,2013-04-12 15:28:00,
2013-04-13 01:33:00,73.4,70.3,29.50,NE,45,0.0,0.0,90,0.04,,,0.08,VWS V14.01,2013-04-12 15:33:00,
2013-04-13 01:38:00,73.4,70.3,29.50,SE,135,2.2,2.2,90,0.04,,,0.08,VWS V14.01,2013-04-12 15:38:00,
2013-04-13 01:43:00,73.4,70.3,29.53,South,180,2.7,2.7,90,0.00,,,0.08,VWS V14.01,2013-04-12 15:43:00,
2013-04-13 01:49:00,73.4,70.3,29.53,South,180,1.3,2.7,90,0.00,,,0.08,VWS V14.01,2013-04-12 15:49:00,
2013-04-13 01:54:00,73.4,70.3,29.53,SE,135,0.0,0.9,90,0.00,,,0.08,VWS V14.01,2013-04-12 15:54:00,
2013-04-13 01:59:00,73.6,70.8,29.53,SE,135,0.0,2.0,91,0.00,,,0.08,VWS V14.01,2013-04-12 15:59:00,
2013-04-13 02:04:00,73.4,70.6,29.53,SSE,158,0.0,0.0,91,0.00,,,0.08,VWS V14.01,2013-04-12 16:04:00,
2013-04-13 02:09:00,73.6,70.8,29.53,SSE,158,1.3,2.0,91,0.00,,,0.08,VWS V14.01,2013-04-12 16:09:00,
2013-04-13 02:14:00,73.4,70.6,29.53,SSE,158,0.0,0.0,91,0.00,,,0.08,VWS V14.01,2013-04-12 16:14:00,
2013-04-13 02:19:00,73.4,70.6,29.53,SSW,202,3.1,3.1,91,0.00,,,0.08,VWS V14.01,2013-04-12 16:19:00,
2013-04-13 02:24:00,73.2,70.4,29.53,South,180,3.1,3.1,91,0.04,,,0.12,VWS V14.01,2013-04-12 16:24:00,
2013-04-13 02:29:00,73.0,70.3,29.53,SSE,158,5.4,5.4,91,0.04,,,0.12,VWS V14.01,2013-04-12 16:29:00,
2013-04-13 02:35:00,72.9,70.1,29.53,SSW,202,5.4,5.4,91,0.08,,,0.16,VWS V14.01,2013-04-12 16:35:00,
2013-04-13 02:40:00,72.7,69.9,29.50,South,180,4.0,9.6,91,0.12,,,0.20,VWS V14.01,2013-04-12 16:40:00,
2013-04-13 02:45:00,72.7,69.9,29.50,SSE,158,4.9,4.9,91,0.17,,,0.25,VWS V14.01,2013-04-12 16:45:00,
2013-04-13 02:50:00,72.5,70.1,29.50,SE,135,4.7,4.7,92,0.17,,,0.25,VWS V14.01,2013-04-12 16:50:00,
2013-04-13 02:55:00,72.5,70.1,29.50,South,180,8.1,8.1,92,0.17,,,0.25,VWS V14.01,2013-04-12 16:55:00,
2013-04-13 03:00:00,72.5,70.1,29.50,SSW,202,6.5,6.5,92,0.17,,,0.25,VWS V14.01,2013-04-12 17:00:00,
2013-04-13 03:05:00,72.3,69.9,29.50,South,180,5.8,5.8,92,0.17,,,0.25,VWS V14.01,2013-04-12 17:05:00,
2013-04-13 03:11:00,72.3,69.9,29.47,SE,135,5.8,5.8,92,0.17,,,0.25,VWS V14.01,2013-04-12 17:11:00,
2013-04-13 03:16:00,72.1,69.7,29.47,South,180,4.9,4.9,92,0.17,,,0.25,VWS V14.01,2013-04-12 17:16:00,
2013-04-13 03:21:00,72.5,70.1,29.47,ESE,112,4.3,4.3,92,0.17,,,0.25,VWS V14.01,2013-04-12 17:21:00,
2013-04-13 03:26:00,72.5,70.1,29.47,South,180,3.8,7.2,92,0.13,,,0.25,VWS V14.01,2013-04-12 17:26:00,
2013-04-13 03:31:00,72.3,69.9,29.47,SE,135,4.0,5.6,92,0.13,,,0.25,VWS V14.01,2013-04-12 17:31:00,
2013-04-13 03:36:00,72.3,69.9,29.47,SSE,158,3.4,5.8,92,0.09,,,0.25,VWS V14.01,2013-04-12 17:36:00,
2013-04-13 03:42:00,72.5,70.1,29.47,SSE,158,9.8,9.8,92,0.05,,,0.25,VWS V14.01,2013-04-12 17:42:00,
2013-04-13 03:47:00,72.5,69.7,29.47,SSE,158,6.3,6.3,91,0.00,,,0.25,VWS V14.01,2013-04-12 17:47:00,
2013-04-13 03:52:00,72.7,69.9,29.47,SSE,158,4.9,4.9,91,0.00,,,0.25,VWS V14.01,2013-04-12 17:52:00,
2013-04-13 03:58:00,72.7,69.9,29.47,SSE,158,5.4,5.6,91,0.00,,,0.25,VWS V14.01,2013-04-12 17:58:00,
2013-04-13 04:03:00,72.7,69.9,29.47,South,180,3.6,5.6,91,0.00,,,0.25,VWS V14.01,2013-04-12 18:03:00,
2013-04-13 04:09:00,72.7,69.9,29.47,SSE,158,3.6,3.6,91,0.00,,,0.25,VWS V14.01,2013-04-12 18:09:00,
2013-04-13 04:14:00,72.7,69.9,29.50,South,180,3.8,3.8,91,0.00,,,0.25,VWS V14.01,2013-04-12 18:14:00,
2013-04-13 04:20:00,72.7,69.9,29.50,SE,135,1.1,3.1,91,0.00,,,0.25,VWS V14.01,2013-04-12 18:20:00,
2013-04-13 04:26:00,72.9,70.1,29.50,South,180,2.9,2.9,91,0.00,,,0.25,VWS V14.01,2013-04-12 18:26:00,
2013-04-13 05:26:00,72.5,70.1,29.50,SSE,158,2.5,4.9,92,0.00,,,0.25,VWS V14.01,2013-04-12 19:26:00,
2013-04-13 05:27:00,72.5,70.1,29.50,South,180,3.1,3.8,92,0.00,,,0.25,VWS V14.01,2013-04-12 19:27:00,
2013-04-13 05:28:00,72.5,70.1,29.50,SSE,158,3.4,3.4,92,0.00,,,0.25,VWS V14.01,2013-04-12 19:28:00,
2013-04-13 05:33:00,72.5,70.1,29.50,SSE,158,0.9,0.9,92,0.00,,,0.25,VWS V14.01,2013-04-12 19:33:00,
2013-04-13 05:38:00,72.7,70.2,29.50,SSE,158,3.1,3.1,92,0.00,,,0.25,VWS V14.01,2013-04-12 19:38:00,
2013-04-13 05:43:00,72.7,70.2,29.50,SSE,158,2.7,4.7,92,0.00,,,0.25,VWS V14.01,2013-04-12 19:43:00,
2013-04-13 05:49:00,72.9,70.1,29.50,South,180,3.8,3.8,91,0.00,,,0.25,VWS V14.01,2013-04-12 19:49:00,
2013-04-13 05:54:00,72.9,70.1,29.50,South,180,3.6,3.6,91,0.00,,,0.25,VWS V14.01,2013-04-12 19:54:00,
2013-04-13 05:59:00,72.9,70.1,29.50,SSE,158,3.4,3.4,91,0.00,,,0.25,VWS V14.01,2013-04-12 19:59:00,
2013-04-13 06:04:00,72.9,70.1,29.50,South,180,1.6,2.7,91,0.00,,,0.25,VWS V14.01,2013-04-12 20:04:00,
2013-04-13 06:09:00,72.7,69.9,29.53,SSW,202,4.0,4.0,91,0.00,,,0.25,VWS V14.01,2013-04-12 20:09:00,
2013-04-13 06:14:00,72.7,69.9,29.53,South,180,3.1,4.3,91,0.00,,,0.25,VWS V14.01,2013-04-12 20:14:00,
2013-04-13 06:20:00,72.7,69.9,29.53,South,180,2.5,2.5,91,0.00,,,0.25,VWS V14.01,2013-04-12 20:20:00,
2013-04-13 06:25:00,72.7,69.9,29.53,SSW,202,2.9,3.4,91,0.00,,,0.25,VWS V14.01,2013-04-12 20:25:00,
2013-04-13 06:30:00,72.7,69.9,29.53,SSE,158,4.3,4.5,91,0.00,,,0.25,VWS V14.01,2013-04-12 20:30:00,
2013-04-13 06:35:00,72.7,69.9,29.53,SE,135,3.4,3.4,91,0.00,,,0.25,VWS V14.01,2013-04-12 20:35:00,
2013-04-13 06:40:00,72.7,69.9,29.53,South,180,2.5,3.1,91,0.00,,,0.25,VWS V14.01,2013-04-12 20:40:00,
2013-04-13 06:45:00,72.9,70.1,29.53,SSE,158,5.4,5.4,91,0.00,,,0.25,VWS V14.01,2013-04-12 20:45:00,
2013-04-13 06:50:00,72.9,70.1,29.53,South,180,2.0,2.0,91,0.00,,,0.25,VWS V14.01,2013-04-12 20:50:00,
2013-04-13 06:55:00,72.9,70.1,29.53,SSW,202,3.1,3.1,91,0.00,,,0.25,VWS V14.01,2013-04-12 20:55:00,
2013-04-13 07:00:00,73.0,70.3,29.53,SE,135,3.4,3.4,91,0.00,,,0.25,VWS V14.01,2013-04-12 21:00:00,
2013-04-13 07:05:00,73.0,70.3,29.53,South,180,0.0,0.0,91,0.00,,,0.25,VWS V14.01,2013-04-12 21:05:00,
2013-04-13 07:11:00,73.0,70.3,29.56,SE,135,1.6,1.6,91,0.00,,,0.25,VWS V14.01,2013-04-12 21:11:00,
2013-04-13 07:16:00,73.2,70.4,29.56,SE,135,2.7,2.7,91,0.00,,,0.25,VWS V14.01,2013-04-12 21:16:00,
2013-04-13 07:21:00,73.2,70.4,29.56,SE,135,1.3,2.0,91,0.00,,,0.25,VWS V14.01,2013-04-12 21:21:00,
2013-04-13 07:26:00,73.4,70.6,29.56,SSE,158,0.0,0.0,91,0.00,,,0.25,VWS V14.01,2013-04-12 21:26:00,
2013-04-13 07:31:00,73.4,70.6,29.56,SSE,158,0.0,0.0,91,0.00,,,0.25,VWS V14.01,2013-04-12 21:31:00,
2013-04-13 07:36:00,73.4,70.6,29.56,WSW,248,2.2,2.2,91,0.00,,,0.25,VWS V14.01,2013-04-12 21:36:00,
2013-04-13 07:42:00,73.6,70.8,29.56,WNW,292,0.0,0.9,91,0.00,,,0.25,VWS V14.01,2013-04-12 21:42:00,
2013-04-13 07:48:00,73.8,71.0,29.56,WSW,248,0.0,1.1,91,0.00,,,0.25,VWS V14.01,2013-04-12 21:48:00,
2013-04-13 07:53:00,74.1,71.3,29.56,WSW,248,0.0,0.0,91,0.00,,,0.25,VWS V14.01,2013-04-12 21:53:00,
2013-04-13 07:58:00,74.3,71.5,29.56,SE,135,2.0,2.0,91,0.00,,,0.25,VWS V14.01,2013-04-12 21:58:00,
2013-04-13 08:03:00,74.5,71.7,29.56,East,90,1.3,1.6,91,0.00,,,0.25,VWS V14.01,2013-04-12 22:03:00,
2013-04-13 08:08:00,74.7,71.5,29.56,SSW,202,0.9,1.3,90,0.00,,,0.25,VWS V14.01,2013-04-12 22:08:00,
2013-04-13 08:13:00,75.0,72.2,29.56,SW,225,2.5,2.5,91,0.00,,,0.25,VWS V14.01,2013-04-12 22:13:00,
2013-04-13 08:18:00,75.6,72.4,29.56,SSE,158,4.3,4.3,90,0.00,,,0.25,VWS V14.01,2013-04-12 22:18:00,
2013-04-13 08:23:00,75.9,72.8,29.56,SSE,158,3.8,4.3,90,0.00,,,0.25,VWS V14.01,2013-04-12 22:23:00,
2013-04-13 08:28:00,76.1,73.0,29.56,South,180,2.5,2.5,90,0.00,,,0.25,VWS V14.01,2013-04-12 22:28:00,
2013-04-13 12:55:00,86.4,76.7,29.53,SSE,158,3.8,3.8,73,0.00,,,0.25,VWS V14.01,2013-04-13 02:55:00,
2013-04-13 13:00:00,86.0,75.1,29.53,ESE,112,3.4,3.4,70,0.00,,,0.25,VWS V14.01,2013-04-13 03:00:00,
2013-04-13 13:05:00,85.8,75.8,29.53,South,180,2.5,3.4,72,0.00,,,0.25,VWS V14.01,2013-04-13 03:05:00,
2013-04-13 13:11:00,86.0,75.9,29.53,ESE,112,2.0,2.0,72,0.00,,,0.25,VWS V14.01,2013-04-13 03:11:00,
2013-04-13 13:16:00,85.8,75.3,29.53,ESE,112,3.4,3.4,71,0.00,,,0.25,VWS V14.01,2013-04-13 03:16:00,
2013-04-13 13:21:00,86.0,75.5,29.53,SSE,158,4.3,4.3,71,0.00,,,0.25,VWS V14.01,2013-04-13 03:21:00,
2013-04-13 13:27:00,85.6,75.2,29.53,ENE,68,2.5,2.5,71,0.00,,,0.25,VWS V14.01,2013-04-13 03:27:00,
2013-04-13 13:32:00,85.8,75.8,29.53,East,90,2.0,3.4,72,0.00,,,0.25,VWS V14.01,2013-04-13 03:32:00,
2013-04-13 13:37:00,86.0,75.5,29.53,South,180,3.8,4.0,71,0.00,,,0.25,VWS V14.01,2013-04-13 03:37:00,
2013-04-13 13:43:00,86.2,75.2,29.50,South,180,5.6,5.6,70,0.00,,,0.25,VWS V14.01,2013-04-13 03:43:00,
2013-04-13 13:48:00,86.2,74.8,29.50,SE,135,1.6,3.6,69,0.00,,,0.25,VWS V14.01,2013-04-13 03:48:00,
2013-04-13 13:53:00,85.5,74.6,29.50,East,90,3.4,3.4,70,0.00,,,0.25,VWS V14.01,2013-04-13 03:53:00,
2013-04-13 13:58:00,85.5,75.0,29.53,East,90,4.3,4.3,71,0.00,,,0.25,VWS V14.01,2013-04-13 03:58:00,
2013-04-13 14:00:00,85.6,75.2,29.53,East,90,4.0,4.3,71,0.00,,,0.25,VWS V14.01,2013-04-13 04:00:00,
2013-04-13 14:01:00,85.6,75.2,29.53,SSE,158,8.1,8.1,71,0.00,,,0.25,VWS V14.01,2013-04-13 04:01:00,
2013-04-13 14:02:00,85.6,75.2,29.53,East,90,3.6,3.6,71,0.00,,,0.25,VWS V14.01,2013-04-13 04:02:00,
2013-04-13 14:07:00,85.6,75.2,29.53,NNE,22,1.3,1.3,71,0.00,,,0.25,VWS V14.01,2013-04-13 04:07:00,
2013-04-13 14:13:00,85.5,75.0,29.50,ESE,112,4.0,4.0,71,0.00,,,0.25,VWS V14.01,2013-04-13 04:13:00,
2013-04-13 14:18:00,85.1,73.8,29.50,SE,135,6.0,6.0,69,0.00,,,0.25,VWS V14.01,2013-04-13 04:18:00,
2013-04-13 14:23:00,85.1,74.2,29.50,NNE,22,3.4,3.4,70,0.00,,,0.25,VWS V14.01,2013-04-13 04:23:00,
2013-04-13 14:28:00,85.6,74.7,29.50,South,180,5.4,5.4,70,0.00,,,0.25,VWS V14.01,2013-04-13 04:28:00,
2013-04-13 14:33:00,85.5,74.6,29.50,SSE,158,6.0,6.0,70,0.00,,,0.25,VWS V14.01,2013-04-13 04:33:00,
2013-04-13 14:38:00,85.6,74.7,29.50,SSE,158,4.5,4.9,70,0.00,,,0.25,VWS V14.01,2013-04-13 04:38:00,
2013-04-13 14:43:00,85.8,74.5,29.50,SSW,202,2.7,2.7,69,0.00,,,0.25,VWS V14.01,2013-04-13 04:43:00,
2013-04-13 14:48:00,85.6,74.3,29.50,SSW,202,2.5,2.5,69,0.00,,,0.25,VWS V14.01,2013-04-13 04:48:00,
2013-04-13 14:53:00,85.5,73.7,29.50,South,180,8.1,8.1,68,0.00,,,0.25,VWS V14.01,2013-04-13 04:53:00,
2013-04-13 14:59:00,85.3,73.5,29.50,South,180,6.3,6.3,68,0.00,,,0.25,VWS V14.01,2013-04-13 04:59:00,
2013-04-13 15:04:00,85.3,73.5,29.50,South,180,8.1,8.1,68,0.00,,,0.25,VWS V14.01,2013-04-13 05:04:00,
2013-04-13 15:09:00,85.1,73.4,29.50,SE,135,5.8,5.8,68,0.00,,,0.25,VWS V14.01,2013-04-13 05:09:00,
2013-04-13 15:14:00,85.3,73.5,29.50,SE,135,2.9,4.3,68,0.00,,,0.25,VWS V14.01,2013-04-13 05:14:00,
2013-04-13 15:19:00,85.3,73.5,29.50,SE,135,3.1,3.6,68,0.00,,,0.25,VWS V14.01,2013-04-13 05:19:00,
2013-04-13 15:24:00,85.3,73.5,29.50,SSE,158,4.3,5.8,68,0.00,,,0.25,VWS V14.01,2013-04-13 05:24:00,
2013-04-13 15:29:00,85.6,74.3,29.50,South,180,2.9,2.9,69,0.00,,,0.25,VWS V14.01,2013-04-13 05:29:00,
2013-04-13 15:34:00,85.5,74.1,29.50,SE,135,3.4,4.7,69,0.00,,,0.25,VWS V14.01,2013-04-13 05:34:00,
2013-04-13 15:39:00,85.1,73.8,29.50,SE,135,4.9,4.9,69,0.00,,,0.25,VWS V14.01,2013-04-13 05:39:00,
2013-04-13 15:44:00,84.9,73.6,29.50,SE,135,4.0,4.0,69,0.00,,,0.25,VWS V14.01,2013-04-13 05:44:00,
2013-04-13 15:49:00,84.6,73.3,29.50,SE,135,5.8,5.8,69,0.00,,,0.25,VWS V14.01,2013-04-13 05:49:00,
2013-04-13 15:54:00,84.6,73.3,29.50,SE,135,7.8,7.8,69,0.00,,,0.25,VWS V14.01,2013-04-13 05:54:00,
2013-04-13 16:00:00,84.0,73.2,29.50,SSE,158,2.7,3.1,70,0.00,,,0.25,VWS V14.01,2013-04-13 06:00:00,
2013-04-13 16:05:00,83.7,72.8,29.50,SSE,158,6.9,6.9,70,0.00,,,0.25,VWS V14.01,2013-04-13 06:05:00,
2013-04-13 16:10:00,83.3,72.1,29.50,SSE,158,3.1,3.4,69,0.00,,,0.25,VWS V14.01,2013-04-13 06:10:00,
2013-04-13 16:15:00,83.1,72.3,29.50,SE,135,7.4,7.4,70,0.00,,,0.25,VWS V14.01,2013-04-13 06:15:00,
2013-04-13 16:20:00,83.1,72.3,29.50,SE,135,8.1,8.1,70,0.00,,,0.25,VWS V14.01,2013-04-13 06:20:00,
2013-04-13 16:25:00,82.8,72.0,29.50,East,90,3.6,6.5,70,0.00,,,0.25,VWS V14.01,2013-04-13 06:25:00,
2013-04-13 16:32:00,82.6,72.2,29.50,South,180,4.7,7.6,71,0.00,,,0.25,VWS V14.01,2013-04-13 06:32:00,
2013-04-13 16:37:00,82.8,72.4,29.50,ESE,112,4.3,4.3,71,0.00,,,0.25,VWS V14.01,2013-04-13 06:37:00,
2013-04-13 16:42:00,82.4,72.1,29.53,SSE,158,5.4,5.4,71,0.00,,,0.25,VWS V14.01,2013-04-13 06:42:00,
2013-04-13 16:48:00,82.0,71.7,29.53,South,180,4.0,4.0,71,0.00,,,0.25,VWS V14.01,2013-04-13 06:48:00,
2013-04-13 16:53:00,82.0,72.1,29.53,South,180,6.0,7.8,72,0.00,,,0.25,VWS V14.01,2013-04-13 06:53:00,
2013-04-13 16:58:00,81.7,71.8,29.53,SSE,158,6.3,6.3,72,0.00,,,0.25,VWS V14.01,2013-04-13 06:58:00,
2013-04-13 17:03:00,81.5,71.6,29.53,SSW,202,7.4,7.4,72,0.00,,,0.25,VWS V14.01,2013-04-13 07:03:00,
2013-04-13 17:09:00,81.3,71.4,29.53,SE,135,5.8,8.1,72,0.00,,,0.25,VWS V14.01,2013-04-13 07:09:00,
2013-04-13 17:14:00,81.1,71.7,29.53,SSE,158,3.6,6.5,73,0.00,,,0.25,VWS V14.01,2013-04-13 07:14:00,
2013-04-13 17:19:00,80.8,71.3,29.53,South,180,4.9,4.9,73,0.00,,,0.25,VWS V14.01,2013-04-13 07:19:00,
2013-04-13 17:25:00,80.6,71.2,29.53,SSW,202,7.4,7.4,73,0.00,,,0.25,VWS V14.01,2013-04-13 07:25:00,
2013-04-13 17:30:00,80.4,71.0,29.53,South,180,4.9,6.3,73,0.00,,,0.25,VWS V14.01,2013-04-13 07:30:00,
2013-04-13 17:35:00,80.2,71.2,29.53,SE,135,8.7,8.7,74,0.00,,,0.25,VWS V14.01,2013-04-13 07:35:00,
2013-04-13 17:41:00,80.1,70.6,29.53,SSW,202,4.9,4.9,73,0.00,,,0.25,VWS V14.01,2013-04-13 07:41:00,
2013-04-13 17:46:00,80.1,71.0,29.53,SSE,158,10.7,10.7,74,0.00,,,0.25,VWS V14.01,2013-04-13 07:46:00,
2013-04-13 17:51:00,79.9,70.9,29.53,SSE,158,6.3,6.3,74,0.00,,,0.25,VWS V14.01,2013-04-13 07:51:00,
2013-04-13 17:57:00,79.7,70.7,29.53,SE,135,5.6,6.0,74,0.00,,,0.25,VWS V14.01,2013-04-13 07:57:00,
2013-04-13 18:03:00,79.5,70.5,29.53,SE,135,8.1,8.1,74,0.00,,,0.25,VWS V14.01,2013-04-13 08:03:00,
2013-04-13 18:08:00,79.5,70.5,29.53,South,180,7.2,7.2,74,0.00,,,0.25,VWS V14.01,2013-04-13 08:08:00,
2013-04-13 18:13:00,79.5,70.5,29.53,SE,135,5.6,5.6,74,0.00,,,0.25,VWS V14.01,2013-04-13 08:13:00,
2013-04-13 18:18:00,79.3,70.7,29.53,South,180,4.7,4.9,75,0.00,,,0.25,VWS V14.01,2013-04-13 08:18:00,
2013-04-13 18:23:00,79.2,70.6,29.53,SSE,158,4.9,4.9,75,0.00,,,0.25,VWS V14.01,2013-04-13 08:23:00,
2013-04-13 18:28:00,79.3,70.7,29.56,SSE,158,3.4,3.4,75,0.00,,,0.25,VWS V14.01,2013-04-13 08:28:00,
2013-04-13 18:33:00,79.2,70.6,29.56,SSE,158,7.4,7.4,75,0.00,,,0.25,VWS V14.01,2013-04-13 08:33:00,
2013-04-13 18:39:00,79.0,70.4,29.56,South,180,3.4,3.6,75,0.00,,,0.25,VWS V14.01,2013-04-13 08:39:00,
2013-04-13 18:44:00,78.8,70.2,29.56,SSE,158,3.6,3.8,75,0.00,,,0.25,VWS V14.01,2013-04-13 08:44:00,
2013-04-13 18:50:00,78.6,70.4,29.56,South,180,6.3,6.3,76,0.00,,,0.25,VWS V14.01,2013-04-13 08:50:00,
2013-04-13 18:55:00,78.4,70.2,29.56,South,180,8.1,8.1,76,0.00,,,0.25,VWS V14.01,2013-04-13 08:55:00,
2013-04-13 19:02:00,78.3,70.1,29.56,South,180,5.4,5.4,76,0.00,,,0.25,VWS V14.01,2013-04-13 09:02:00,
2013-04-13 19:07:00,78.1,69.9,29.56,SSE,158,4.3,4.3,76,0.00,,,0.25,VWS V14.01,2013-04-13 09:07:00,
2013-04-13 19:12:00,78.1,70.3,29.56,SSE,158,6.0,7.4,77,0.00,,,0.25,VWS V14.01,2013-04-13 09:12:00,
2013-04-13 19:17:00,77.9,70.1,29.56,SSE,158,9.2,9.2,77,0.00,,,0.25,VWS V14.01,2013-04-13 09:17:00,
2013-04-13 19:23:00,77.7,69.9,29.56,SE,135,7.8,7.8,77,0.00,,,0.25,VWS V14.01,2013-04-13 09:23:00,
2013-04-13 19:28:00,77.7,69.9,29.56,SSE,158,5.6,6.0,77,0.00,,,0.25,VWS V14.01,2013-04-13 09:28:00,
2013-04-13 19:33:00,77.7,69.9,29.56,SW,225,7.4,7.4,77,0.00,,,0.25,VWS V14.01,2013-04-13 09:33:00,
2013-04-13 19:39:00,77.5,69.8,29.56,South,180,7.8,7.8,77,0.00,,,0.25,VWS V14.01,2013-04-13 09:39:00,
2013-04-13 19:44:00,77.5,70.1,29.56,SSE,158,5.8,5.8,78,0.00,,,0.25,VWS V14.01,2013-04-13 09:44:00,
2013-04-13 19:49:00,77.4,70.0,29.56,SSE,158,5.6,5.6,78,0.00,,,0.25,VWS V14.01,2013-04-13 09:49:00,
2013-04-13 19:54:00,77.4,70.0,29.56,SE,135,4.0,4.3,78,0.00,,,0.25,VWS V14.01,2013-04-13 09:54:00,
2013-04-13 20:00:00,77.4,70.0,29.56,SE,135,4.9,4.9,78,0.00,,,0.25,VWS V14.01,2013-04-13 10:00:00,
2013-04-13 20:05:00,77.4,70.0,29.56,South,180,4.0,8.1,78,0.00,,,0.25,VWS V14.01,2013-04-13 10:05:00,
2013-04-13 20:10:00,77.2,69.8,29.56,SE,135,4.3,5.6,78,0.00,,,0.25,VWS V14.01,2013-04-13 10:10:00,
2013-04-13 20:16:00,77.0,69.6,29.56,SSE,158,4.0,4.0,78,0.00,,,0.25,VWS V14.01,2013-04-13 10:16:00,
2013-04-13 20:22:00,77.2,69.8,29.56,South,180,3.6,4.0,78,0.00,,,0.25,VWS V14.01,2013-04-13 10:22:00,
2013-04-13 20:27:00,77.0,70.0,29.59,SSE,158,4.0,4.3,79,0.00,,,0.25,VWS V14.01,2013-04-13 10:27:00,
2013-04-13 20:33:00,76.8,69.8,29.59,SSE,158,2.5,2.5,79,0.00,,,0.25,VWS V14.01,2013-04-13 10:33:00,
2013-04-13 20:38:00,77.0,70.0,29.59,South,180,3.6,3.6,79,0.00,,,0.25,VWS V14.01,2013-04-13 10:38:00,
2013-04-13 20:44:00,76.8,69.8,29.59,SSE,158,3.6,3.8,79,0.00,,,0.25,VWS V14.01,2013-04-13 10:44:00,
2013-04-13 20:50:00,76.8,70.2,29.59,SW,225,3.1,4.0,80,0.00,,,0.25,VWS V14.01,2013-04-13 10:50:00,
2013-04-13 20:55:00,76.6,70.0,29.59,SSE,158,2.0,3.6,80,0.00,,,0.25,VWS V14.01,2013-04-13 10:55:00,
2013-04-13 21:00:00,76.6,70.0,29.59,SSE,158,4.3,4.3,80,0.00,,,0.25,VWS V14.01,2013-04-13 11:00:00,
2013-04-13 21:06:00,76.3,69.7,29.59,SSW,202,4.3,4.3,80,0.00,,,0.25,VWS V14.01,2013-04-13 11:06:00,
2013-04-13 21:12:00,76.1,69.8,29.59,South,180,2.7,2.9,81,0.00,,,0.25,VWS V14.01,2013-04-13 11:12:00,
2013-04-13 21:17:00,76.1,69.8,29.59,SSE,158,2.5,3.1,81,0.00,,,0.25,VWS V14.01,2013-04-13 11:17:00,
2013-04-13 21:22:00,75.9,70.0,29.59,SSE,158,3.1,3.1,82,0.00,,,0.25,VWS V14.01,2013-04-13 11:22:00,
2013-04-13 21:27:00,76.1,70.2,29.59,South,180,0.0,2.9,82,0.00,,,0.25,VWS V14.01,2013-04-13 11:27:00,
2013-04-13 21:32:00,76.1,70.2,29.59,South,180,2.5,2.5,82,0.00,,,0.25,VWS V14.01,2013-04-13 11:32:00,
2013-04-13 21:38:00,76.1,70.2,29.59,SE,135,1.6,1.6,82,0.00,,,0.25,VWS V14.01,2013-04-13 11:38:00,
2013-04-13 21:43:00,76.1,70.2,29.59,SE,135,2.2,2.2,82,0.00,,,0.25,VWS V14.01,2013-04-13 11:43:00,
2013-04-13 21:48:00,75.9,70.0,29.59,SSE,158,0.0,0.0,82,0.00,,,0.25,VWS V14.01,2013-04-13 11:48:00,
2013-04-13 21:53:00,75.9,70.4,29.59,NNW,338,0.0,0.0,83,0.00,,,0.25,VWS V14.01,2013-04-13 11:53:00,
2013-04-13 21:58:00,75.9,70.4,29.59,SW,225,0.0,0.0,83,0.00,,,0.25,VWS V14.01,2013-04-13 11:58:00,
2013-04-13 22:04:00,76.1,70.6,29.59,SW,225,0.0,0.0,83,0.00,,,0.25,VWS V14.01,2013-04-13 12:04:00,
2013-04-13 22:09:00,75.9,70.4,29.59,WSW,248,0.0,0.0,83,0.00,,,0.25,VWS V14.01,2013-04-13 12:09:00,
2013-04-13 22:14:00,75.6,70.0,29.59,NW,315,0.0,0.0,83,0.00,,,0.25,VWS V14.01,2013-04-13 12:14:00,
2013-04-13 22:19:00,75.6,70.4,29.59,NW,315,0.0,0.0,84,0.00,,,0.25,VWS V14.01,2013-04-13 12:19:00,
2013-04-13 22:25:00,75.4,70.2,29.62,East,90,0.0,0.0,84,0.00,,,0.25,VWS V14.01,2013-04-13 12:25:00,
2013-04-13 22:30:00,75.4,70.2,29.62,South,180,2.7,2.7,84,0.00,,,0.25,VWS V14.01,2013-04-13 12:30:00,
2013-04-13 22:35:00,75.4,70.2,29.62,SW,225,1.3,2.7,84,0.00,,,0.25,VWS V14.01,2013-04-13 12:35:00,
2013-04-13 22:40:00,75.4,69.9,29.62,SW,225,0.0,0.0,83,0.00,,,0.25,VWS V14.01,2013-04-13 12:40:00,
2013-04-13 22:46:00,75.4,69.9,29.62,SW,225,0.0,0.0,83,0.00,,,0.25,VWS V14.01,2013-04-13 12:46:00,
2013-04-13 22:51:00,75.4,70.2,29.62,SW,225,0.0,0.0,84,0.00,,,0.25,VWS V14.01,2013-04-13 12:51:00,
2013-04-13 22:56:00,75.4,70.2,29.62,SW,225,0.0,0.0,84,0.00,,,0.25,VWS V14.01,2013-04-13 12:56:00,
2013-04-13 23:02:00,75.4,70.2,29.62,WSW,248,2.0,2.0,84,0.00,,,0.25,VWS V14.01,2013-04-13 13:02:00,
2013-04-13 23:07:00,75.4,70.2,29.62,SW,225,2.5,2.5,84,0.00,,,0.25,VWS V14.01,2013-04-13 13:07:00,
2013-04-13 23:12:00,75.4,70.2,29.62,SW,225,2.5,2.5,84,0.00,,,0.25,VWS V14.01,2013-04-13 13:12:00,
2013-04-13 23:18:00,75.4,70.2,29.62,SE,135,1.3,3.6,84,0.00,,,0.25,VWS V14.01,2013-04-13 13:18:00,
2013-04-13 23:23:00,75.4,70.2,29.62,South,180,0.0,0.0,84,0.00,,,0.25,VWS V14.01,2013-04-13 13:23:00,
2013-04-13 23:29:00,75.0,70.2,29.62,SSE,158,0.0,0.0,85,0.00,,,0.25,VWS V14.01,2013-04-13 13:29:00,
2013-04-13 23:34:00,75.0,70.2,29.62,South,180,2.5,2.5,85,0.00,,,0.25,VWS V14.01,2013-04-13 13:34:00,
2013-04-13 23:39:00,75.0,70.2,29.59,SW,225,2.7,2.9,85,0.00,,,0.25,VWS V14.01,2013-04-13 13:39:00,
2013-04-13 23:45:00,75.0,70.2,29.59,South,180,2.2,2.2,85,0.00,,,0.25,VWS V14.01,2013-04-13 13:45:00,
2013-04-13 23:50:00,75.0,70.2,29.59,South,180,3.6,3.6,85,0.00,,,0.25,VWS V14.01,2013-04-13 13:50:00,
2013-04-13 23:55:00,74.7,69.9,29.59,South,180,2.7,5.6,85,0.00,,,0.25,VWS V14.01,2013-04-13 13:55:00,